createdAt,value
2019-06-04T00:02:06.994Z,5.20
2019-06-04T00:04:33.947Z,6.10
2019-06-04T00:07:02.634Z,5.40
2019-06-04T00:09:29.779Z,6.23
2019-06-04T00:11:57.597Z,6.03
2019-06-04T00:14:24.639Z,6.27
2019-06-04T00:16:51.520Z,5.30
2019-06-04T00:19:18.480Z,5.73
2019-06-04T00:21:45.544Z,5.23
2019-06-04T00:24:12.435Z,5.40
2019-06-04T00:26:39.303Z,5.57
2019-06-04T00:29:06.273Z,6.53
2019-06-04T00:31:35.230Z,5.73
2019-06-04T00:34:02.550Z,5.70
2019-06-04T00:36:29.596Z,7.67
2019-06-04T00:38:58.274Z,6.70
2019-06-04T00:41:25.479Z,150.83
2019-06-04T00:43:52.348Z,5.80
2019-06-04T00:46:19.428Z,6.90
2019-06-04T00:48:46.311Z,6.80
2019-06-04T00:51:14.679Z,6.13
2019-06-04T00:53:41.549Z,6.20
2019-06-04T00:56:08.640Z,6.50
2019-06-04T00:58:35.856Z,5.77
2019-06-04T01:01:03.948Z,6.50
2019-06-04T01:03:31.211Z,6.30
2019-06-04T01:06:00.096Z,6.40
2019-06-04T01:08:27.364Z,6.23
2019-06-04T01:10:54.314Z,5.40
2019-06-04T01:13:21.471Z,6.30
2019-06-04T01:15:48.485Z,6.60
2019-06-04T01:18:15.364Z,159.40
2019-06-04T01:20:46.684Z,130.17
2019-06-04T01:23:15.067Z,125.67
2019-06-04T01:25:42.252Z,45.50
2019-06-04T01:28:09.919Z,40.50
2019-06-04T01:30:37.112Z,28.67
2019-06-04T01:33:04.124Z,27.20
2019-06-04T01:35:31.256Z,29.40
2019-06-04T01:37:58.184Z,55.20
2019-06-04T01:40:25.164Z,51.03
2019-06-04T01:42:52.488Z,48.23
2019-06-04T01:45:19.456Z,50.43
2019-06-04T01:47:46.338Z,35.10
2019-06-04T01:50:13.305Z,26.07
2019-06-04T01:52:40.192Z,68.70
2019-06-04T01:55:08.547Z,56.70
2019-06-04T01:57:35.657Z,71.70
2019-06-04T02:00:09.189Z,64.17
2019-06-04T02:02:33.928Z,59.13
2019-06-04T02:05:01.272Z,51.47
2019-06-04T02:07:28.306Z,42.40
2019-06-04T02:09:55.573Z,34.30
2019-06-04T02:12:22.452Z,37.67
2019-06-04T02:14:49.321Z,52.60
2019-06-04T02:17:16.217Z,56.87
2019-06-04T02:19:43.104Z,50.77
2019-06-04T02:22:10.235Z,53.87
2019-06-04T02:24:37.245Z,54.77
2019-06-04T02:27:04.304Z,43.30
2019-06-04T02:29:31.193Z,46.70
2019-06-04T02:31:58.267Z,41.63
2019-06-04T02:34:25.336Z,53.23
2019-06-04T02:36:52.513Z,47.87
2019-06-04T02:39:19.792Z,45.90
2019-06-04T02:41:46.964Z,38.13
2019-06-04T02:44:15.710Z,28.43
2019-06-04T02:46:44.615Z,29.93
2019-06-04T02:49:13.457Z,32.13
2019-06-04T02:51:42.080Z,27.87
2019-06-04T02:54:11.660Z,19.03
2019-06-04T02:56:40.616Z,27.33
2019-06-04T02:59:10.000Z,21.30
2019-06-04T03:01:37.095Z,19.50
2019-06-04T03:04:04.437Z,21.10
2019-06-04T03:06:31.811Z,27.10
2019-06-04T03:08:58.809Z,27.97
2019-06-04T03:11:25.765Z,44.03
2019-06-04T03:13:52.874Z,42.27
2019-06-04T03:16:20.217Z,48.83
2019-06-04T03:18:47.427Z,58.87
2019-06-04T03:21:15.664Z,52.63
2019-06-04T03:23:43.425Z,51.13
2019-06-04T03:26:11.390Z,54.20
2019-06-04T03:28:38.483Z,52.47
2019-06-04T03:31:05.448Z,42.87
2019-06-04T03:33:54.985Z,48.00
2019-06-04T03:36:01.112Z,38.90
2019-06-04T03:38:28.189Z,38.23
2019-06-04T03:40:55.052Z,47.87
2019-06-04T03:43:21.926Z,46.47
2019-06-04T03:45:48.818Z,45.00
2019-06-04T03:48:16.082Z,57.50
2019-06-04T03:50:43.151Z,57.23
2019-06-04T03:53:10.165Z,57.07
2019-06-04T03:55:37.021Z,59.30
2019-06-04T03:58:04.007Z,54.93
2019-06-04T04:00:31.501Z,58.10
2019-06-04T04:02:58.722Z,55.40
2019-06-04T04:05:25.965Z,56.13
2019-06-04T04:07:53.052Z,54.50
2019-06-04T04:10:20.605Z,55.87
2019-06-04T04:12:47.601Z,60.87
2019-06-04T04:15:14.849Z,61.07
2019-06-04T04:17:41.757Z,54.30
2019-06-04T04:20:08.912Z,58.13
2019-06-04T04:22:35.904Z,56.17
2019-06-04T04:25:03.242Z,59.40
2019-06-04T04:27:30.110Z,62.30
2019-06-04T04:29:57.194Z,58.23
2019-06-04T04:32:24.967Z,64.80
2019-06-04T04:34:52.392Z,53.00
2019-06-04T04:37:19.774Z,50.20
2019-06-04T04:39:46.929Z,60.63
2019-06-04T04:42:14.003Z,45.03
2019-06-04T04:44:41.204Z,48.10
2019-06-04T04:47:08.091Z,51.00
2019-06-04T04:49:35.424Z,26.43
2019-06-04T04:52:02.384Z,38.73
2019-06-04T04:54:30.035Z,22.17
2019-06-04T04:56:57.184Z,19.93
2019-06-04T04:59:27.907Z,16.33
2019-06-04T05:01:55.493Z,13.03
2019-06-04T05:04:23.677Z,9.70
2019-06-04T05:06:53.446Z,11.07
2019-06-04T05:09:21.978Z,10.83
2019-06-04T05:11:51.008Z,9.17
2019-06-04T05:14:18.698Z,10.87
2019-06-04T05:16:45.677Z,11.83
2019-06-04T05:19:15.023Z,10.73
2019-06-04T05:21:44.302Z,9.87
2019-06-04T05:24:11.387Z,12.33
2019-06-04T05:26:38.253Z,10.40
2019-06-04T05:29:05.132Z,8.27
2019-06-04T05:31:32.142Z,13.63
2019-06-04T05:33:59.089Z,9.90
2019-06-04T05:36:27.643Z,8.53
2019-06-04T05:38:54.879Z,12.33
2019-06-04T05:41:22.158Z,10.83
2019-06-04T05:43:49.303Z,9.30
2019-06-04T05:46:16.173Z,13.17
2019-06-04T05:48:43.134Z,18.50
2019-06-04T05:51:10.012Z,11.67
2019-06-04T05:53:36.964Z,10.33
2019-06-04T05:56:03.929Z,14.63
2019-06-04T05:58:31.046Z,15.57
2019-06-04T06:00:58.260Z,21.23
2019-06-04T06:03:25.216Z,20.30
2019-06-04T06:05:52.104Z,23.93
2019-06-04T06:08:19.060Z,36.97
2019-06-04T06:10:46.129Z,30.03
2019-06-04T06:13:13.105Z,36.10
2019-06-04T06:15:40.176Z,40.70
2019-06-04T06:18:07.036Z,28.73
2019-06-04T06:20:34.005Z,31.23
2019-06-04T06:23:10.592Z,38.10
2019-06-04T06:25:33.191Z,49.30
2019-06-04T06:27:58.577Z,52.40
2019-06-04T06:30:26.836Z,55.00
2019-06-04T06:32:54.015Z,53.97
2019-06-04T06:35:21.084Z,58.67
2019-06-04T06:37:47.959Z,60.70
2019-06-04T06:40:16.420Z,64.43
2019-06-04T06:42:43.600Z,57.40
2019-06-04T06:45:10.814Z,68.10
2019-06-04T06:47:37.700Z,72.23
2019-06-04T06:50:05.425Z,72.13
2019-06-04T06:52:33.264Z,71.17
2019-06-04T06:55:00.365Z,63.53
2019-06-04T06:57:27.957Z,65.10
2019-06-04T06:59:55.134Z,61.40
2019-06-04T07:02:24.749Z,52.80
2019-06-04T07:04:51.953Z,51.43
2019-06-04T07:07:19.223Z,50.23
2019-06-04T07:09:47.217Z,51.87
2019-06-04T07:12:16.188Z,57.87
2019-06-04T07:14:45.996Z,51.80
2019-06-04T07:17:14.770Z,32.37
2019-06-04T07:19:41.328Z,27.30
2019-06-04T07:22:08.193Z,26.87
2019-06-04T07:24:35.718Z,18.33
2019-06-04T07:27:02.932Z,17.87
2019-06-04T07:29:30.318Z,16.70
2019-06-04T07:31:57.480Z,16.93
2019-06-04T07:34:24.460Z,17.07
2019-06-04T07:36:51.337Z,16.47
2019-06-04T07:39:18.305Z,16.17
2019-06-04T07:41:45.316Z,14.63
2019-06-04T07:44:12.355Z,15.00
2019-06-04T07:46:39.699Z,16.37
2019-06-04T07:49:06.797Z,15.37
2019-06-04T07:51:33.941Z,16.33
2019-06-04T07:54:01.066Z,14.00
2019-06-04T07:56:28.304Z,16.20
2019-06-04T07:58:55.271Z,15.97
2019-06-04T08:01:24.236Z,15.60
2019-06-04T08:03:51.228Z,11.40
2019-06-04T08:06:18.188Z,10.70
2019-06-04T08:08:45.277Z,6.93
2019-06-04T08:11:12.477Z,6.07
2019-06-04T08:13:40.149Z,6.00
2019-06-04T08:16:08.388Z,5.53
2019-06-04T08:18:35.517Z,6.27
2019-06-04T08:21:02.552Z,5.23
2019-06-04T08:23:29.476Z,5.10
2019-06-04T08:25:56.781Z,4.80
2019-06-04T08:28:23.660Z,4.97
2019-06-04T08:30:50.708Z,5.30
2019-06-04T08:33:17.800Z,4.90
2019-06-04T08:35:46.208Z,5.70
2019-06-04T08:38:13.688Z,5.13
2019-06-04T08:40:41.641Z,4.50
2019-06-04T08:43:08.745Z,4.37
2019-06-04T08:45:37.404Z,4.20
2019-06-04T08:48:04.740Z,4.53
2019-06-04T08:50:31.805Z,4.00
2019-06-04T08:52:58.688Z,3.90
2019-06-04T08:55:34.017Z,4.93
2019-06-04T08:58:02.821Z,4.60
2019-06-04T09:00:29.892Z,3.33
2019-06-04T09:02:57.220Z,5.90
2019-06-04T09:05:24.566Z,6.97
2019-06-04T09:07:52.142Z,19.07
2019-06-04T09:10:28.368Z,32.10
2019-06-04T09:12:55.225Z,54.30
2019-06-04T09:15:22.297Z,60.07
2019-06-04T09:17:52.492Z,40.70
2019-06-04T09:20:18.143Z,67.27
2019-06-04T09:22:45.618Z,75.67
2019-06-04T09:25:12.714Z,75.90
2019-06-04T09:27:40.559Z,73.60
2019-06-04T09:30:07.773Z,72.50
2019-06-04T09:32:34.725Z,77.60
2019-06-04T09:35:02.108Z,69.07
2019-06-04T09:37:46.079Z,66.17
2019-06-04T09:39:58.040Z,62.20
2019-06-04T09:42:24.914Z,73.70
2019-06-04T09:44:51.885Z,73.90
2019-06-04T09:47:18.740Z,68.60
2019-06-04T09:49:49.596Z,61.57
2019-06-04T09:52:14.775Z,61.00
2019-06-04T09:54:43.253Z,60.50
2019-06-04T09:57:10.629Z,63.57
2019-06-04T09:59:37.503Z,56.37
2019-06-04T10:02:04.565Z,54.30
2019-06-04T10:04:31.627Z,50.00
2019-06-04T10:06:58.596Z,53.30
2019-06-04T10:09:25.869Z,55.07
2019-06-04T10:11:52.832Z,56.70
2019-06-04T10:14:19.791Z,48.80
2019-06-04T10:16:47.047Z,57.03
2019-06-04T10:19:14.269Z,59.17
2019-06-04T10:21:41.136Z,65.33
2019-06-04T10:24:08.013Z,67.57
2019-06-04T10:26:34.885Z,61.60
2019-06-04T10:29:08.432Z,57.00
2019-06-04T10:31:30.717Z,63.73
2019-06-04T10:33:57.672Z,70.00
2019-06-04T10:36:24.652Z,67.93
2019-06-04T10:38:52.769Z,63.57
2019-06-04T10:41:20.106Z,60.93
2019-06-04T10:43:47.682Z,60.73
2019-06-04T10:46:14.557Z,62.93
2019-06-04T10:48:41.433Z,65.57
2019-06-04T10:51:08.719Z,57.63
2019-06-04T10:53:35.692Z,53.00
2019-06-04T10:56:03.912Z,58.63
2019-06-04T10:58:30.890Z,62.97
2019-06-04T11:00:59.333Z,59.00
2019-06-04T11:03:26.942Z,62.70
2019-06-04T11:05:54.498Z,75.93
2019-06-04T11:08:22.307Z,64.87
2019-06-04T11:10:49.882Z,69.37
2019-06-04T11:13:17.543Z,65.00
2019-06-04T11:15:44.607Z,65.77
2019-06-04T11:18:11.727Z,69.73
2019-06-04T11:20:39.283Z,66.40
2019-06-04T11:23:06.576Z,72.60
2019-06-04T11:25:33.815Z,63.10
2019-06-04T11:28:00.868Z,65.73
2019-06-04T11:30:27.840Z,78.47
2019-06-04T11:32:55.845Z,72.27
2019-06-04T11:35:23.258Z,68.97
2019-06-04T11:37:50.435Z,70.60
2019-06-04T11:40:17.704Z,65.33
2019-06-04T11:42:44.577Z,75.23
2019-06-04T11:45:24.051Z,79.93
2019-06-04T11:47:41.651Z,73.00
2019-06-04T11:50:09.184Z,88.60
2019-06-04T11:52:37.192Z,82.10
2019-06-04T11:55:04.999Z,87.70
2019-06-04T11:57:33.177Z,85.17
2019-06-04T12:00:02.179Z,89.37
2019-06-04T12:02:29.637Z,98.33
2019-06-04T12:05:01.922Z,92.83
2019-06-04T12:07:25.389Z,93.47
2019-06-04T12:09:52.920Z,77.20
2019-06-04T12:12:42.835Z,91.10
2019-06-04T12:14:48.999Z,82.57
2019-06-04T12:17:16.004Z,94.73
2019-06-04T12:19:43.073Z,90.87
2019-06-04T12:22:10.043Z,102.73
2019-06-04T12:24:37.042Z,93.30
2019-06-04T12:27:04.799Z,95.13
2019-06-04T12:29:33.254Z,99.43
2019-06-04T12:32:00.620Z,89.10
2019-06-04T12:34:27.541Z,87.43
2019-06-04T12:36:54.688Z,92.97
2019-06-04T12:39:21.793Z,101.17
2019-06-04T12:41:48.760Z,102.30
2019-06-04T12:44:15.844Z,101.20
2019-06-04T12:46:42.932Z,85.87
2019-06-04T12:49:10.041Z,92.57
2019-06-04T12:51:37.621Z,81.27
2019-06-04T12:54:06.050Z,83.33
2019-06-04T12:56:33.173Z,69.87
2019-06-04T12:59:02.004Z,66.47
2019-06-04T13:01:31.168Z,51.37
2019-06-04T13:04:00.343Z,36.77
2019-06-04T13:06:27.928Z,21.50
2019-06-04T13:08:55.085Z,12.20
2019-06-04T13:11:22.416Z,8.00
2019-06-04T13:13:49.766Z,6.87
2019-06-04T13:16:17.794Z,6.10
2019-06-04T13:18:45.071Z,5.20
2019-06-04T13:21:12.920Z,4.40
2019-06-04T13:23:40.181Z,4.10
2019-06-04T13:26:07.572Z,3.97
2019-06-04T13:28:34.721Z,3.17
2019-06-04T13:31:01.808Z,2.63
2019-06-04T13:33:28.773Z,2.30
2019-06-04T13:35:55.744Z,2.20
2019-06-04T13:38:23.134Z,2.20
2019-06-04T13:40:49.999Z,2.43
2019-06-04T13:43:16.865Z,2.00
2019-06-04T13:45:43.948Z,3.33
2019-06-04T13:48:11.984Z,2.30
2019-06-04T13:50:39.683Z,2.00
2019-06-04T13:53:13.272Z,2.20
2019-06-04T13:55:37.069Z,2.00
2019-06-04T13:58:05.025Z,2.17
2019-06-04T14:00:41.915Z,2.40
2019-06-04T14:03:02.458Z,2.30
2019-06-04T14:05:29.537Z,2.53
2019-06-04T14:07:57.175Z,2.73
2019-06-04T14:10:24.377Z,2.90
2019-06-04T14:12:51.249Z,2.30
2019-06-04T14:15:18.684Z,2.37
2019-06-04T14:17:45.658Z,2.33
2019-06-04T14:20:13.253Z,2.10
2019-06-04T14:22:40.301Z,2.17
2019-06-04T14:25:13.928Z,2.37
2019-06-04T14:27:41.414Z,2.10
2019-06-04T14:30:09.594Z,1.80
2019-06-04T14:32:37.020Z,1.73
2019-06-04T14:35:07.462Z,2.10
2019-06-04T14:37:34.850Z,1.97
2019-06-04T14:40:17.553Z,2.10
2019-06-04T14:42:31.052Z,2.10
2019-06-04T14:44:58.149Z,2.33
2019-06-04T14:47:25.181Z,1.93
2019-06-04T14:49:52.052Z,3.07
2019-06-04T14:52:20.258Z,2.97
2019-06-04T14:54:47.498Z,4.33
2019-06-04T14:57:14.723Z,5.10
2019-06-04T14:59:41.856Z,4.00
2019-06-04T15:02:10.203Z,4.47
2019-06-04T15:04:37.293Z,4.37
2019-06-04T15:07:04.244Z,4.40
2019-06-04T15:09:31.125Z,5.77
2019-06-04T15:11:58.264Z,7.07
2019-06-04T15:14:25.248Z,8.40
2019-06-04T15:16:52.332Z,9.70
2019-06-04T15:19:20.352Z,13.50
2019-06-04T15:21:47.395Z,16.50
2019-06-04T15:24:14.878Z,19.10
2019-06-04T15:26:42.148Z,20.87
2019-06-04T15:29:09.211Z,20.90
2019-06-04T15:31:36.184Z,24.33
2019-06-04T15:34:03.263Z,26.57
2019-06-04T15:36:30.717Z,24.43
2019-06-04T15:38:57.688Z,28.13
2019-06-04T15:41:24.841Z,22.60
2019-06-04T15:43:52.512Z,24.70
2019-06-04T15:46:19.764Z,26.93
2019-06-04T15:48:46.825Z,20.87
2019-06-04T15:51:14.391Z,23.13
2019-06-04T15:53:41.880Z,24.93
2019-06-04T15:56:08.759Z,25.60
2019-06-04T15:58:35.621Z,27.50
2019-06-04T16:01:02.597Z,31.80
2019-06-04T16:03:48.290Z,22.23
2019-06-04T16:05:58.931Z,25.13
2019-06-04T16:08:26.956Z,26.83
2019-06-04T16:10:54.069Z,26.00
2019-06-04T16:13:21.051Z,28.97
2019-06-04T16:15:47.964Z,27.77
2019-06-04T16:18:14.882Z,26.93
2019-06-04T16:20:41.832Z,28.37
2019-06-04T16:23:08.832Z,25.80
2019-06-04T16:25:35.796Z,28.90
2019-06-04T16:28:15.348Z,28.27
2019-06-04T16:30:44.647Z,28.73
2019-06-04T16:33:12.267Z,30.60
2019-06-04T16:35:39.667Z,32.33
2019-06-04T16:38:09.035Z,32.87
2019-06-04T16:40:36.362Z,33.17
2019-06-04T16:43:04.080Z,29.70
2019-06-04T16:45:31.310Z,35.67
2019-06-04T16:47:59.044Z,33.40
2019-06-04T16:50:26.828Z,33.40
2019-06-04T16:52:54.186Z,34.30
2019-06-04T16:55:21.416Z,37.40
2019-06-04T16:57:48.964Z,31.90
2019-06-04T17:00:16.406Z,35.83
2019-06-04T17:02:43.467Z,34.70
2019-06-04T17:05:10.993Z,33.77
2019-06-04T17:07:38.996Z,32.80
2019-06-04T17:10:06.501Z,36.30
2019-06-04T17:12:50.628Z,40.27
2019-06-04T17:15:04.086Z,41.27
2019-06-04T17:17:31.533Z,40.67
2019-06-04T17:19:59.329Z,40.77
2019-06-04T17:22:27.270Z,39.40
2019-06-04T17:24:54.797Z,43.20
2019-06-04T17:27:22.016Z,42.33
2019-06-04T17:29:49.265Z,43.50
2019-06-04T17:32:16.485Z,44.23
2019-06-04T17:34:43.608Z,49.07
2019-06-04T17:37:10.941Z,43.97
2019-06-04T17:39:38.205Z,39.43
2019-06-04T17:42:23.124Z,45.93
2019-06-04T17:44:57.090Z,46.83
2019-06-04T17:47:28.230Z,46.90
2019-06-04T17:50:01.345Z,55.10
2019-06-04T17:52:36.745Z,52.33
2019-06-04T17:55:06.137Z,37.77
2019-06-04T17:57:34.731Z,38.83
2019-06-04T18:00:02.399Z,32.50
2019-06-04T18:02:31.146Z,52.43
2019-06-04T18:04:58.588Z,50.97
2019-06-04T18:07:26.602Z,41.23
2019-06-04T18:09:53.970Z,40.33
2019-06-04T18:12:21.181Z,25.70
2019-06-04T18:14:48.762Z,16.47
2019-06-04T18:17:17.058Z,15.30
2019-06-04T18:19:44.318Z,13.00
2019-06-04T18:22:11.597Z,14.90
2019-06-04T18:24:38.865Z,12.60
2019-06-04T18:27:06.098Z,12.33
2019-06-04T18:29:33.734Z,11.60
2019-06-04T18:32:01.147Z,12.73
2019-06-04T18:34:29.101Z,11.13
2019-06-04T18:36:56.642Z,12.50
2019-06-04T18:39:23.853Z,11.00
2019-06-04T18:41:51.210Z,10.10
2019-06-04T18:44:18.748Z,13.10
2019-06-04T18:46:45.959Z,14.73
2019-06-04T18:49:13.208Z,12.60
2019-06-04T18:51:40.479Z,10.73
2019-06-04T18:54:07.834Z,11.70
2019-06-04T18:56:36.139Z,9.70
2019-06-04T18:59:03.514Z,9.50
2019-06-04T19:01:30.808Z,6.93
2019-06-04T19:03:59.518Z,7.53
2019-06-04T19:06:26.828Z,6.83
2019-06-04T19:08:54.055Z,6.27
2019-06-04T19:11:21.347Z,6.13
2019-06-04T19:14:02.543Z,6.90
2019-06-04T19:16:17.738Z,7.90
2019-06-04T19:18:45.185Z,5.80
2019-06-04T19:21:12.373Z,7.40
2019-06-04T19:23:39.571Z,5.70
2019-06-04T19:26:06.948Z,5.67
2019-06-04T19:28:35.257Z,4.90
2019-06-04T19:31:02.709Z,5.37
2019-06-04T19:33:29.832Z,8.07
2019-06-04T19:35:57.573Z,7.60
2019-06-04T19:38:24.778Z,6.30
2019-06-04T19:40:52.268Z,5.40
2019-06-04T19:43:19.487Z,4.53
2019-06-04T19:45:46.773Z,4.97
2019-06-04T19:48:14.050Z,5.53
2019-06-04T19:50:42.485Z,5.40
2019-06-04T19:53:09.849Z,5.10
2019-06-04T19:55:37.080Z,5.20
2019-06-04T19:58:04.253Z,4.70
2019-06-04T20:00:31.509Z,4.90
2019-06-04T20:02:58.714Z,4.67
2019-06-04T20:05:43.561Z,5.73
2019-06-04T20:07:55.349Z,6.10
2019-06-04T20:10:22.586Z,5.30
2019-06-04T20:12:49.800Z,4.83
2019-06-04T20:15:17.937Z,5.37
2019-06-04T20:17:46.931Z,4.13
2019-06-04T20:20:15.857Z,4.20
2019-06-04T20:22:43.958Z,4.37
2019-06-04T20:25:11.301Z,4.43
2019-06-04T20:27:39.360Z,4.87
2019-06-04T20:30:09.945Z,4.40
2019-06-04T20:32:42.990Z,9.53
2019-06-04T20:35:14.029Z,6.73
2019-06-04T20:37:39.174Z,4.60
2019-06-04T20:40:07.593Z,4.33
2019-06-04T20:45:22.243Z,3.13
2019-06-04T20:47:50.607Z,3.90
2019-06-04T20:50:17.932Z,3.50
2019-06-04T20:52:45.418Z,3.67
2019-06-04T20:55:14.423Z,4.20
2019-06-04T20:57:43.036Z,3.73
2019-06-04T21:00:12.509Z,3.87
2019-06-04T21:02:39.865Z,3.63
2019-06-04T21:05:10.792Z,3.40
2019-06-04T21:07:36.296Z,3.80
2019-06-04T21:10:04.489Z,3.90
2019-06-04T21:12:32.013Z,4.90
2019-06-04T21:14:59.115Z,6.23
2019-06-04T21:17:26.485Z,4.40
2019-06-04T21:19:54.139Z,4.13
2019-06-04T21:22:21.579Z,4.23
2019-06-04T21:24:49.433Z,3.10
2019-06-04T21:27:16.938Z,3.70
2019-06-04T21:29:45.422Z,3.30
2019-06-04T21:32:12.741Z,3.70
2019-06-04T21:34:40.013Z,2.63
2019-06-04T21:37:07.362Z,2.70
2019-06-04T21:39:34.948Z,3.07
2019-06-04T21:42:02.294Z,2.70
2019-06-04T21:44:29.589Z,3.50
2019-06-04T21:47:02.193Z,3.00
2019-06-04T21:49:26.158Z,3.77
2019-06-04T21:51:54.571Z,2.93
2019-06-04T21:54:21.932Z,3.97
2019-06-04T21:56:49.871Z,2.87
2019-06-04T21:59:18.924Z,3.40
2019-06-04T22:01:47.769Z,2.73
2019-06-04T22:04:15.265Z,2.77
2019-06-04T22:06:42.357Z,2.60
2019-06-04T22:09:22.668Z,2.10
2019-06-04T22:11:49.897Z,2.10
2019-06-04T22:14:17.495Z,2.00
2019-06-04T22:16:44.561Z,2.00
2019-06-04T22:19:11.777Z,2.07
2019-06-04T22:21:38.956Z,2.03
2019-06-04T22:24:06.257Z,2.10
2019-06-04T22:26:33.444Z,2.10
2019-06-04T22:29:00.567Z,2.13
2019-06-04T22:31:27.890Z,1.87
2019-06-04T22:33:59.417Z,3.07
2019-06-04T22:36:24.157Z,2.47
2019-06-04T22:38:52.041Z,2.80
2019-06-04T22:41:20.293Z,2.60
2019-06-04T22:43:47.541Z,2.67
2019-06-04T22:46:19.577Z,2.93
2019-06-04T22:48:43.815Z,2.83
2019-06-04T22:51:10.925Z,3.77
2019-06-04T22:53:38.173Z,2.60
2019-06-04T22:56:05.769Z,4.10
2019-06-04T22:58:33.137Z,3.40
2019-06-04T23:01:01.730Z,3.07
2019-06-04T23:03:29.238Z,3.87
2019-06-04T23:05:56.401Z,3.23
2019-06-04T23:08:23.703Z,3.90
2019-06-04T23:10:50.792Z,2.60
2019-06-04T23:13:17.976Z,3.83
2019-06-04T23:15:45.221Z,3.53
2019-06-04T23:18:12.365Z,3.93
2019-06-04T23:20:39.733Z,3.93
2019-06-04T23:23:06.785Z,4.20
2019-06-04T23:25:33.973Z,3.40
2019-06-04T23:28:02.818Z,3.70
2019-06-04T23:30:30.241Z,3.60
2019-06-04T23:32:58.314Z,3.50
2019-06-04T23:35:25.601Z,4.03
2019-06-04T23:37:52.821Z,3.13
2019-06-04T23:40:20.008Z,3.67
2019-06-04T23:42:47.321Z,3.90
2019-06-04T23:45:14.790Z,3.90
2019-06-04T23:47:42.101Z,3.97
2019-06-04T23:50:09.794Z,4.60
2019-06-04T23:52:37.630Z,4.67
2019-06-04T23:55:05.917Z,3.93
2019-06-04T23:57:33.240Z,3.80
